createdAt,value
2023-04-02T00:00:10.600Z,92.73
2023-04-02T00:01:10.564Z,89.69
2023-04-02T00:02:10.625Z,99.91
2023-04-02T00:03:10.661Z,102.45
2023-04-02T00:04:10.723Z,100.67
2023-04-02T00:05:10.590Z,99.74
2023-04-02T00:06:10.603Z,95.25
2023-04-02T00:07:10.621Z,91.62
2023-04-02T00:08:10.612Z,87.20
2023-04-02T00:09:10.619Z,80.90
2023-04-02T00:10:10.639Z,81.02
2023-04-02T00:11:10.644Z,85.48
2023-04-02T00:12:10.639Z,87.93
2023-04-02T00:13:10.656Z,93.71
2023-04-02T00:14:10.677Z,94.55
2023-04-02T00:15:10.671Z,89.95
2023-04-02T00:16:10.723Z,92.46
2023-04-02T00:17:10.703Z,87.39
2023-04-02T00:18:10.718Z,88.14
2023-04-02T00:19:10.725Z,91.05
2023-04-02T00:20:10.751Z,93.66
2023-04-02T00:21:10.751Z,97.45
2023-04-02T00:22:10.743Z,93.38
2023-04-02T00:23:10.774Z,89.02
2023-04-02T00:24:10.788Z,79.09
2023-04-02T00:25:10.777Z,81.34
2023-04-02T00:26:10.797Z,81.85
2023-04-02T00:27:10.814Z,84.39
2023-04-02T00:28:10.825Z,88.14
2023-04-02T00:29:10.826Z,85.26
2023-04-02T00:30:10.845Z,86.22
2023-04-02T00:31:10.875Z,91.35
2023-04-02T00:32:10.884Z,103.79
2023-04-02T00:33:10.907Z,105.69
2023-04-02T00:34:10.879Z,108.74
2023-04-02T00:35:10.922Z,109.58
2023-04-02T00:36:10.943Z,102.36
2023-04-02T00:37:10.934Z,102.69
2023-04-02T00:38:10.929Z,96.97
2023-04-02T00:39:10.942Z,96.43
2023-04-02T00:40:10.967Z,101.97
2023-04-02T00:41:10.977Z,100.48
2023-04-02T00:42:10.979Z,95.66
2023-04-02T00:43:10.978Z,96.96
2023-04-02T00:44:10.992Z,95.89
2023-04-02T00:45:10.990Z,97.03
2023-04-02T00:46:11.128Z,100.47
2023-04-02T00:47:11.017Z,106.13
2023-04-02T00:48:11.065Z,104.50
2023-04-02T00:49:11.061Z,118.74
2023-04-02T00:50:11.075Z,120.78
2023-04-02T00:51:11.075Z,117.10
2023-04-02T00:52:11.089Z,124.37
2023-04-02T00:53:11.128Z,127.77
2023-04-02T00:54:11.129Z,125.85
2023-04-02T00:55:11.125Z,128.53
2023-04-02T00:56:11.153Z,129.55
2023-04-02T00:57:11.185Z,129.29
2023-04-02T00:58:11.203Z,129.75
2023-04-02T00:59:11.195Z,135.03
2023-04-02T01:00:11.210Z,137.86
2023-04-02T01:01:11.255Z,137.85
2023-04-02T01:02:11.230Z,139.05
2023-04-02T01:03:11.386Z,134.91
2023-04-02T01:04:11.238Z,133.55
2023-04-02T01:05:11.231Z,132.59
2023-04-02T01:06:11.263Z,129.80
2023-04-02T01:07:11.278Z,127.82
2023-04-02T01:08:11.315Z,121.54
2023-04-02T01:09:11.297Z,126.35
2023-04-02T01:10:11.335Z,129.53
2023-04-02T01:11:11.321Z,126.77
2023-04-02T01:12:11.349Z,124.78
2023-04-02T01:13:11.356Z,123.05
2023-04-02T01:14:11.384Z,126.84
2023-04-02T01:15:11.365Z,120.18
2023-04-02T01:16:11.450Z,121.07
2023-04-02T01:17:11.397Z,123.38
2023-04-02T01:18:11.380Z,124.16
2023-04-02T01:19:11.391Z,124.52
2023-04-02T01:20:11.473Z,122.22
2023-04-02T01:21:11.418Z,122.62
2023-04-02T01:22:11.431Z,126.56
2023-04-02T01:23:11.446Z,123.36
2023-04-02T01:24:11.466Z,126.53
2023-04-02T01:25:11.471Z,127.61
2023-04-02T01:26:11.483Z,128.29
2023-04-02T01:27:11.490Z,132.16
2023-04-02T01:28:11.496Z,132.87
2023-04-02T01:29:11.515Z,125.38
2023-04-02T01:30:11.530Z,120.25
2023-04-02T01:31:11.570Z,124.68
2023-04-02T01:32:11.556Z,122.58
2023-04-02T01:33:11.559Z,123.24
2023-04-02T01:34:11.567Z,136.17
2023-04-02T01:35:11.581Z,137.41
2023-04-02T01:36:11.664Z,134.95
2023-04-02T01:37:11.621Z,135.96
2023-04-02T01:38:11.675Z,127.62
2023-04-02T01:39:11.647Z,118.06
2023-04-02T01:40:11.661Z,128.75
2023-04-02T01:41:11.677Z,124.40
2023-04-02T01:42:11.733Z,126.67
2023-04-02T01:43:11.730Z,125.40
2023-04-02T01:44:11.749Z,129.40
2023-04-02T01:45:11.758Z,132.46
2023-04-02T01:46:11.798Z,138.41
2023-04-02T01:47:11.783Z,136.74
2023-04-02T01:48:11.813Z,133.40
2023-04-02T01:49:11.808Z,137.68
2023-04-02T01:50:11.835Z,137.38
2023-04-02T01:51:11.850Z,136.77
2023-04-02T01:52:11.858Z,140.40
2023-04-02T01:53:11.887Z,141.48
2023-04-02T01:54:11.887Z,140.91
2023-04-02T01:55:11.905Z,145.38
2023-04-02T01:56:11.915Z,148.56
2023-04-02T01:57:11.986Z,148.67
2023-04-02T01:58:11.967Z,152.54
2023-04-02T01:59:11.972Z,156.92
2023-04-02T02:00:11.985Z,155.69
2023-04-02T02:01:12.056Z,152.27
2023-04-02T02:02:12.047Z,159.74
2023-04-02T02:03:12.116Z,163.28
2023-04-02T02:04:12.059Z,158.06
2023-04-02T02:05:12.098Z,159.14
2023-04-02T02:06:12.096Z,159.53
2023-04-02T02:07:12.130Z,151.88
2023-04-02T02:08:12.139Z,151.80
2023-04-02T02:09:12.171Z,148.93
2023-04-02T02:10:12.170Z,154.48
2023-04-02T02:11:12.211Z,148.07
2023-04-02T02:12:12.211Z,151.96
2023-04-02T02:13:12.258Z,145.45
2023-04-02T02:14:12.251Z,145.48
2023-04-02T02:15:12.314Z,148.26
2023-04-02T02:16:12.337Z,148.85
2023-04-02T02:17:12.311Z,147.58
2023-04-02T02:18:12.332Z,140.11
2023-04-02T02:19:12.875Z,142.58
2023-04-02T02:20:12.376Z,141.01
2023-04-02T02:21:12.382Z,135.68
2023-04-02T02:22:12.408Z,138.65
2023-04-02T02:23:12.420Z,142.87
2023-04-02T02:24:12.452Z,141.67
2023-04-02T02:25:12.442Z,133.49
2023-04-02T02:26:12.446Z,134.35
2023-04-02T02:27:12.463Z,135.25
2023-04-02T02:28:12.489Z,128.67
2023-04-02T02:29:12.546Z,131.11
2023-04-02T02:30:12.523Z,127.97
2023-04-02T02:31:12.562Z,129.22
2023-04-02T02:32:12.641Z,130.57
2023-04-02T02:33:12.570Z,130.54
2023-04-02T02:34:12.601Z,131.83
2023-04-02T02:35:12.596Z,132.47
2023-04-02T02:36:12.632Z,135.20
2023-04-02T02:37:12.635Z,133.38
2023-04-02T02:38:12.648Z,137.35
2023-04-02T02:39:12.656Z,141.97
2023-04-02T02:40:12.662Z,145.26
2023-04-02T02:41:12.685Z,144.99
2023-04-02T02:42:12.705Z,143.42
2023-04-02T02:43:12.695Z,146.63
2023-04-02T02:44:12.747Z,144.05
2023-04-02T02:45:12.731Z,145.30
2023-04-02T02:46:12.810Z,158.07
2023-04-02T02:47:12.745Z,158.22
2023-04-02T02:48:12.792Z,152.96
2023-04-02T02:49:12.785Z,150.86
2023-04-02T02:50:12.820Z,149.42
2023-04-02T02:51:14.453Z,147.62
2023-04-02T02:52:12.820Z,150.40
2023-04-02T02:53:12.827Z,153.72
2023-04-02T02:54:12.830Z,152.23
2023-04-02T02:55:12.858Z,160.82
2023-04-02T02:56:12.870Z,158.05
2023-04-02T02:57:12.910Z,162.70
2023-04-02T02:58:12.887Z,159.69
2023-04-02T02:59:12.901Z,163.04
2023-04-02T03:00:12.945Z,159.82
2023-04-02T03:01:12.936Z,168.00
2023-04-02T03:02:12.951Z,164.27
2023-04-02T03:03:13.085Z,162.23
2023-04-02T03:04:13.014Z,157.95
2023-04-02T03:05:13.016Z,164.49
2023-04-02T03:06:13.001Z,157.31
2023-04-02T03:07:13.026Z,161.72
2023-04-02T03:08:13.041Z,157.68
2023-04-02T03:09:13.063Z,157.73
2023-04-02T03:10:13.120Z,154.25
2023-04-02T03:11:13.110Z,149.92
2023-04-02T03:12:13.108Z,147.47
2023-04-02T03:13:13.124Z,150.56
2023-04-02T03:14:13.132Z,144.69
2023-04-02T03:15:13.174Z,143.07
2023-04-02T03:16:13.206Z,139.33
2023-04-02T03:17:13.206Z,141.79
2023-04-02T03:18:13.215Z,150.39
2023-04-02T03:19:13.212Z,153.56
2023-04-02T03:20:13.235Z,151.11
2023-04-02T03:21:13.257Z,150.85
2023-04-02T03:22:13.268Z,144.07
2023-04-02T03:23:13.265Z,141.42
2023-04-02T03:24:13.301Z,145.18
2023-04-02T03:25:13.290Z,146.96
2023-04-02T03:26:13.298Z,143.42
2023-04-02T03:27:13.320Z,142.93
2023-04-02T03:28:13.330Z,145.30
2023-04-02T03:29:13.341Z,147.09
2023-04-02T03:30:13.359Z,149.06
2023-04-02T03:31:13.440Z,149.13
2023-04-02T03:32:13.393Z,146.36
2023-04-02T03:33:13.394Z,143.34
2023-04-02T03:34:13.404Z,150.89
2023-04-02T03:35:13.447Z,156.59
2023-04-02T03:36:13.512Z,158.30
2023-04-02T03:37:13.470Z,153.99
2023-04-02T03:38:13.473Z,147.16
2023-04-02T03:39:13.505Z,147.24
2023-04-02T03:40:13.517Z,153.05
2023-04-02T03:41:13.538Z,148.38
2023-04-02T03:42:13.552Z,141.25
2023-04-02T03:43:13.561Z,140.05
2023-04-02T03:44:13.571Z,144.02
2023-04-02T03:45:13.594Z,139.69
2023-04-02T03:46:13.594Z,138.17
2023-04-02T03:47:13.624Z,139.93
2023-04-02T03:48:13.655Z,143.92
2023-04-02T03:49:13.675Z,136.40
2023-04-02T03:50:13.715Z,137.96
2023-04-02T03:51:13.731Z,130.76
2023-04-02T03:52:13.710Z,125.80
2023-04-02T03:53:13.744Z,116.28
2023-04-02T03:54:13.757Z,122.44
2023-04-02T03:55:13.764Z,123.51
2023-04-02T03:56:13.784Z,124.29
2023-04-02T03:57:13.870Z,130.35
2023-04-02T03:58:13.817Z,135.56
2023-04-02T03:59:13.853Z,140.37
2023-04-02T04:00:13.909Z,153.94
2023-04-02T04:01:13.890Z,150.77
2023-04-02T04:02:13.935Z,159.18
2023-04-02T04:03:13.995Z,158.43
2023-04-02T04:04:13.997Z,155.98
2023-04-02T04:05:13.941Z,159.85
2023-04-02T04:06:13.964Z,163.99
2023-04-02T04:07:13.986Z,165.49
2023-04-02T04:08:14.026Z,167.69
2023-04-02T04:09:14.008Z,167.60
2023-04-02T04:10:14.042Z,169.21
2023-04-02T04:11:14.076Z,173.51
2023-04-02T04:12:14.125Z,169.37
2023-04-02T04:13:14.088Z,168.27
2023-04-02T04:14:14.114Z,172.38
2023-04-02T04:15:14.137Z,170.00
2023-04-02T04:16:14.189Z,170.77
2023-04-02T04:17:14.192Z,166.31
2023-04-02T04:18:14.190Z,165.75
2023-04-02T04:19:14.213Z,166.89
2023-04-02T04:20:14.247Z,163.18
2023-04-02T04:21:14.260Z,164.18
2023-04-02T04:22:14.278Z,166.32
2023-04-02T04:23:14.295Z,165.38
2023-04-02T04:24:14.320Z,163.72
2023-04-02T04:25:14.319Z,155.97
2023-04-02T04:26:14.352Z,151.02
2023-04-02T04:27:14.369Z,148.77
2023-04-02T04:28:14.379Z,150.96
2023-04-02T04:29:14.404Z,147.27
2023-04-02T04:30:14.421Z,140.46
2023-04-02T04:31:14.447Z,141.63
2023-04-02T04:32:14.596Z,129.93
2023-04-02T04:33:14.495Z,126.67
2023-04-02T04:34:14.503Z,119.72
2023-04-02T04:35:14.506Z,112.30
2023-04-02T04:36:14.597Z,112.03
2023-04-02T04:37:14.557Z,107.10
2023-04-02T04:38:14.587Z,100.64
2023-04-02T04:39:14.657Z,102.93
2023-04-02T04:40:14.617Z,97.15
2023-04-02T04:41:14.658Z,95.04
2023-04-02T04:42:14.662Z,99.31
2023-04-02T04:43:14.664Z,106.76
2023-04-02T04:44:14.683Z,114.92
2023-04-02T04:45:14.719Z,123.43
2023-04-02T04:46:14.755Z,129.51
2023-04-02T04:47:14.735Z,131.18
2023-04-02T04:48:14.760Z,134.65
2023-04-02T04:49:14.791Z,135.35
2023-04-02T04:50:14.798Z,145.82
2023-04-02T04:51:14.832Z,154.51
2023-04-02T04:52:14.840Z,161.98
2023-04-02T04:53:14.872Z,159.77
2023-04-02T04:54:14.890Z,159.61
2023-04-02T04:55:15.877Z,158.92
2023-04-02T04:56:19.119Z,154.92
2023-04-02T04:57:14.952Z,155.07
2023-04-02T04:58:14.924Z,150.54
2023-04-02T04:59:14.901Z,144.33
2023-04-02T05:00:14.888Z,138.05
2023-04-02T05:01:14.948Z,139.46
2023-04-02T05:02:14.878Z,138.88
2023-04-02T05:03:14.879Z,144.07
2023-04-02T05:04:14.941Z,137.63
2023-04-02T05:05:14.859Z,137.27
2023-04-02T05:06:14.859Z,138.74
2023-04-02T05:07:14.850Z,144.49
2023-04-02T05:08:14.832Z,144.97
2023-04-02T05:09:14.833Z,145.40
2023-04-02T05:10:14.848Z,145.76
2023-04-02T05:11:14.828Z,148.08
2023-04-02T05:12:14.824Z,145.24
2023-04-02T05:13:14.812Z,143.59
2023-04-02T05:14:14.804Z,148.12
2023-04-02T05:15:14.778Z,142.92
2023-04-02T05:16:14.894Z,144.98
2023-04-02T05:17:14.786Z,138.94
2023-04-02T05:18:14.783Z,143.24
2023-04-02T05:19:14.755Z,144.83
2023-04-02T05:20:14.757Z,146.21
2023-04-02T05:21:14.731Z,144.17
2023-04-02T05:22:14.739Z,140.78
2023-04-02T05:23:14.746Z,143.80
2023-04-02T05:24:14.715Z,140.66
2023-04-02T05:25:14.722Z,142.95
2023-04-02T05:26:14.725Z,136.70
2023-04-02T05:27:14.721Z,145.67
2023-04-02T05:28:14.753Z,142.46
2023-04-02T05:29:14.790Z,145.86
2023-04-02T05:30:14.769Z,144.45
2023-04-02T05:31:14.806Z,141.09
2023-04-02T05:32:14.829Z,145.24
2023-04-02T05:33:14.824Z,138.22
2023-04-02T05:34:14.876Z,126.58
2023-04-02T05:35:14.864Z,125.29
2023-04-02T05:36:14.929Z,117.02
2023-04-02T05:37:14.914Z,124.14
2023-04-02T05:38:14.926Z,111.69
2023-04-02T05:39:14.939Z,119.56
2023-04-02T05:40:14.972Z,135.03
2023-04-02T05:41:15.000Z,136.05
2023-04-02T05:42:15.038Z,140.16
2023-04-02T05:43:15.015Z,135.36
2023-04-02T05:44:15.037Z,139.19
2023-04-02T05:45:15.057Z,139.13
2023-04-02T05:46:15.079Z,137.53
2023-04-02T05:47:15.130Z,134.17
2023-04-02T05:48:15.114Z,141.83
2023-04-02T05:49:15.133Z,137.51
2023-04-02T05:50:15.181Z,130.96
2023-04-02T05:51:15.181Z,138.23
2023-04-02T05:52:15.207Z,134.42
2023-04-02T05:53:15.208Z,140.59
2023-04-02T05:54:15.223Z,143.16
2023-04-02T05:55:15.251Z,152.14
2023-04-02T05:56:15.267Z,153.05
2023-04-02T05:57:15.348Z,155.18
2023-04-02T05:58:34.614Z,153.73
2023-04-02T05:59:16.312Z,153.82
2023-04-02T06:00:15.275Z,154.19
2023-04-02T06:01:15.270Z,153.54
2023-04-02T06:02:15.291Z,154.77
2023-04-02T06:03:15.373Z,162.51
2023-04-02T06:04:15.326Z,153.09
2023-04-02T06:05:15.246Z,152.74
2023-04-02T06:06:15.262Z,154.11
2023-04-02T06:07:15.233Z,145.14
2023-04-02T06:08:15.273Z,145.75
2023-04-02T06:09:15.215Z,147.32
2023-04-02T06:10:15.225Z,147.52
2023-04-02T06:11:15.229Z,152.14
2023-04-02T06:12:15.198Z,152.43
2023-04-02T06:13:15.221Z,149.27
2023-04-02T06:14:15.195Z,153.91
2023-04-02T06:15:15.211Z,152.12
2023-04-02T06:16:15.204Z,150.43
2023-04-02T06:17:15.163Z,151.11
2023-04-02T06:18:15.172Z,153.53
2023-04-02T06:19:15.481Z,161.12
2023-04-02T06:20:15.146Z,170.17
2023-04-02T06:21:15.164Z,170.46
2023-04-02T06:22:15.144Z,172.53
2023-04-02T06:23:15.124Z,175.63
2023-04-02T06:24:15.126Z,176.30
2023-04-02T06:25:15.114Z,179.08
2023-04-02T06:26:15.115Z,180.75
2023-04-02T06:27:15.107Z,185.43
2023-04-02T06:28:15.107Z,186.52
2023-04-02T06:29:15.109Z,188.31
2023-04-02T06:30:15.081Z,194.00
2023-04-02T06:31:15.090Z,195.61
2023-04-02T06:32:15.066Z,193.78
2023-04-02T06:33:15.080Z,197.51
2023-04-02T06:34:15.079Z,198.47
2023-04-02T06:35:15.043Z,201.15
2023-04-02T06:36:15.061Z,205.27
2023-04-02T06:37:15.046Z,209.90
2023-04-02T06:38:15.048Z,214.99
2023-04-02T06:39:15.093Z,222.23
2023-04-02T06:40:15.161Z,220.64
2023-04-02T06:41:15.230Z,227.85
2023-04-02T06:42:15.302Z,228.32
2023-04-02T06:43:15.339Z,232.62
2023-04-02T06:44:15.425Z,234.27
2023-04-02T06:45:15.489Z,231.76
2023-04-02T06:46:15.675Z,235.82
2023-04-02T06:47:15.579Z,232.38
2023-04-02T06:48:15.635Z,232.89
2023-04-02T06:49:15.709Z,238.85
2023-04-02T06:50:15.766Z,232.84
2023-04-02T06:51:15.837Z,235.46
2023-04-02T06:52:15.880Z,238.05
2023-04-02T06:53:15.948Z,242.13
2023-04-02T06:54:16.026Z,239.94
2023-04-02T06:55:16.043Z,245.34
2023-04-02T06:56:16.067Z,246.57
2023-04-02T06:57:16.137Z,244.01
2023-04-02T06:58:16.154Z,248.01
2023-04-02T06:59:16.176Z,240.36
2023-04-02T07:00:16.216Z,230.91
2023-04-02T07:01:16.282Z,230.50
2023-04-02T07:02:16.320Z,229.76
2023-04-02T07:03:16.321Z,226.63
2023-04-02T07:04:16.386Z,231.65
2023-04-02T07:05:16.351Z,224.12
2023-04-02T07:06:16.398Z,222.54
2023-04-02T07:07:16.403Z,223.51
2023-04-02T07:08:16.431Z,222.23
2023-04-02T07:09:16.461Z,215.69
2023-04-02T07:10:16.480Z,210.99
2023-04-02T07:11:17.686Z,216.66
2023-04-02T07:12:16.497Z,216.64
2023-04-02T07:13:16.508Z,222.16
2023-04-02T07:14:16.545Z,217.74
2023-04-02T07:15:16.527Z,219.95
2023-04-02T07:16:16.559Z,224.77
2023-04-02T07:17:16.541Z,221.64
2023-04-02T07:18:16.526Z,226.00
2023-04-02T07:19:16.542Z,219.00
2023-04-02T07:20:16.510Z,221.14
2023-04-02T07:21:16.523Z,219.63
2023-04-02T07:22:16.540Z,221.86
2023-04-02T07:23:17.143Z,225.54
2023-04-02T07:24:16.601Z,221.88
2023-04-02T07:25:16.603Z,227.35
2023-04-02T07:26:16.621Z,229.82
2023-04-02T07:27:16.678Z,225.27
2023-04-02T07:28:16.666Z,225.61
2023-04-02T07:29:16.728Z,225.19
2023-04-02T07:30:16.693Z,222.92
2023-04-02T07:31:16.819Z,220.13
2023-04-02T07:32:16.772Z,222.82
2023-04-02T07:33:16.839Z,221.11
2023-04-02T07:34:16.918Z,226.25
2023-04-02T07:35:16.971Z,218.76
2023-04-02T07:36:17.048Z,221.57
2023-04-02T07:37:17.066Z,211.27
2023-04-02T07:38:17.129Z,214.29
2023-04-02T07:39:17.195Z,214.21
2023-04-02T07:40:17.243Z,214.92
2023-04-02T07:41:17.292Z,220.41
2023-04-02T07:42:17.355Z,213.27
2023-04-02T07:43:17.420Z,209.85
2023-04-02T07:44:17.499Z,210.25
2023-04-02T07:45:17.547Z,213.74
2023-04-02T07:46:17.645Z,203.90
2023-04-02T07:47:17.665Z,205.35
2023-04-02T07:48:17.729Z,212.75
2023-04-02T07:49:17.799Z,210.56
2023-04-02T07:50:17.853Z,208.77
2023-04-02T07:51:17.892Z,206.96
2023-04-02T07:52:17.948Z,201.52
2023-04-02T07:53:18.009Z,201.28
2023-04-02T07:54:18.067Z,202.43
2023-04-02T07:55:18.085Z,199.35
2023-04-02T07:56:18.141Z,201.56
2023-04-02T07:57:18.229Z,201.56
2023-04-02T07:58:18.206Z,204.61
2023-04-02T07:59:18.248Z,200.68
2023-04-02T08:00:18.288Z,204.50
2023-04-02T08:01:18.323Z,207.97
2023-04-02T08:02:18.434Z,211.73
2023-04-02T08:03:18.473Z,203.35
2023-04-02T08:04:18.504Z,208.85
2023-04-02T08:05:18.474Z,210.35
2023-04-02T08:06:18.521Z,209.56
2023-04-02T08:07:18.540Z,202.77
2023-04-02T08:08:18.615Z,209.51
2023-04-02T08:09:18.606Z,203.08
2023-04-02T08:10:18.628Z,201.33
2023-04-02T08:11:18.651Z,205.64
2023-04-02T08:12:18.683Z,211.54
2023-04-02T08:13:18.717Z,203.15
2023-04-02T08:14:18.743Z,194.41
2023-04-02T08:15:18.756Z,198.63
2023-04-02T08:16:18.823Z,198.60
2023-04-02T08:17:18.795Z,190.61
2023-04-02T08:18:18.808Z,188.46
2023-04-02T08:19:18.857Z,190.32
2023-04-02T08:20:18.877Z,186.46
2023-04-02T08:21:18.892Z,184.40
2023-04-02T08:22:18.934Z,188.82
2023-04-02T08:23:18.911Z,180.26
2023-04-02T08:24:18.941Z,183.26
2023-04-02T08:25:18.968Z,173.93
2023-04-02T08:26:18.987Z,172.99
2023-04-02T08:27:18.965Z,174.49
2023-04-02T08:28:19.000Z,180.67
2023-04-02T08:29:18.998Z,174.15
2023-04-02T08:30:19.015Z,178.63
2023-04-02T08:31:19.073Z,170.88
2023-04-02T08:32:19.028Z,167.94
2023-04-02T08:33:19.041Z,165.26
2023-04-02T08:34:19.046Z,169.07
2023-04-02T08:35:19.085Z,163.55
2023-04-02T08:36:19.071Z,162.88
2023-04-02T08:37:19.054Z,162.71
2023-04-02T08:38:19.113Z,165.47
2023-04-02T08:39:19.091Z,147.57
2023-04-02T08:40:19.117Z,158.45
2023-04-02T08:41:19.110Z,157.45
2023-04-02T08:42:19.089Z,160.19
2023-04-02T08:43:19.113Z,150.31
2023-04-02T08:44:19.125Z,147.04
2023-04-02T08:46:19.238Z,147.68
2023-04-02T08:47:19.145Z,145.92
2023-04-02T08:48:19.177Z,138.05
2023-04-02T08:49:19.171Z,139.51
2023-04-02T08:50:19.167Z,135.86
2023-04-02T08:51:19.183Z,133.72
2023-04-02T08:52:19.181Z,141.10
2023-04-02T08:53:19.202Z,131.97
2023-04-02T08:54:19.210Z,126.05
2023-04-02T08:55:19.205Z,116.58
2023-04-02T08:56:19.209Z,107.94
2023-04-02T08:57:19.406Z,120.61
2023-04-02T08:58:19.238Z,113.70
2023-04-02T08:59:19.229Z,120.59
2023-04-02T09:00:19.259Z,116.51
2023-04-02T09:01:19.279Z,115.72
2023-04-02T09:02:19.279Z,112.50
2023-04-02T09:03:19.289Z,100.01
2023-04-02T09:04:19.334Z,102.98
2023-04-02T09:05:19.305Z,106.61
2023-04-02T09:06:19.295Z,116.39
2023-04-02T09:07:19.311Z,110.64
2023-04-02T09:08:19.304Z,112.76
2023-04-02T09:09:19.312Z,118.16
2023-04-02T09:10:19.325Z,99.35
2023-04-02T09:11:19.322Z,96.66
2023-04-02T09:12:19.325Z,98.19
2023-04-02T09:13:19.317Z,86.68
2023-04-02T09:14:19.335Z,89.23
2023-04-02T09:15:19.336Z,80.77
2023-04-02T09:16:19.381Z,85.34
2023-04-02T09:17:19.325Z,93.67
2023-04-02T09:18:19.375Z,80.41
2023-04-02T09:19:19.357Z,83.17
2023-04-02T09:20:19.331Z,78.35
2023-04-02T09:21:19.332Z,77.36
2023-04-02T09:22:19.357Z,88.20
2023-04-02T09:23:19.359Z,83.66
2023-04-02T09:24:19.360Z,73.13
2023-04-02T09:25:19.372Z,67.47
2023-04-02T09:26:19.366Z,68.18
2023-04-02T09:27:19.396Z,80.47
2023-04-02T09:28:19.380Z,83.62
2023-04-02T09:29:19.415Z,74.32
2023-04-02T09:30:19.461Z,76.07
2023-04-02T09:31:19.460Z,58.51
2023-04-02T09:32:19.490Z,59.32
2023-04-02T09:33:19.473Z,78.38
2023-04-02T09:34:19.783Z,78.13
2023-04-02T09:35:26.234Z,77.83
2023-04-02T09:36:20.485Z,77.91
2023-04-02T09:37:19.449Z,78.03
2023-04-02T09:38:19.454Z,62.85
2023-04-02T09:39:19.442Z,74.11
2023-04-02T09:40:19.434Z,75.51
2023-04-02T09:41:19.437Z,72.48
2023-04-02T09:42:19.430Z,73.47
2023-04-02T09:43:19.415Z,75.84
2023-04-02T09:44:19.478Z,75.26
2023-04-02T09:45:19.409Z,64.11
2023-04-02T09:46:19.442Z,67.37
2023-04-02T09:47:19.408Z,72.68
2023-04-02T09:48:19.391Z,75.91
2023-04-02T09:49:19.421Z,70.91
2023-04-02T09:50:19.381Z,67.93
2023-04-02T09:51:19.372Z,62.50
2023-04-02T09:52:19.394Z,66.60
2023-04-02T09:53:19.363Z,54.33
2023-04-02T09:54:19.375Z,47.98
2023-04-02T09:55:19.352Z,66.50
2023-04-02T09:56:19.338Z,58.71
2023-04-02T09:57:19.395Z,62.19
2023-04-02T09:58:19.324Z,59.67
2023-04-02T09:59:19.348Z,49.54
2023-04-02T10:00:30.752Z,56.63
2023-04-02T10:01:20.431Z,57.08
2023-04-02T10:02:19.351Z,57.03
2023-04-02T10:03:19.341Z,52.93
2023-04-02T10:04:19.395Z,57.85
2023-04-02T10:05:26.720Z,52.84
2023-04-02T10:06:20.324Z,56.79
2023-04-02T10:07:19.315Z,57.07
2023-04-02T10:08:19.337Z,57.70
2023-04-02T10:09:19.306Z,66.58
2023-04-02T10:10:19.314Z,52.63
2023-04-02T10:11:19.301Z,58.11
2023-04-02T10:12:19.300Z,52.87
2023-04-02T10:13:19.295Z,57.69
2023-04-02T10:14:19.306Z,46.23
2023-04-02T10:15:19.272Z,45.51
2023-04-02T10:16:19.339Z,56.07
2023-04-02T10:17:19.299Z,49.67
2023-04-02T10:18:19.331Z,47.96
2023-04-02T10:19:20.085Z,51.89
2023-04-02T10:20:19.437Z,43.46
2023-04-02T10:21:19.481Z,62.89
2023-04-02T10:22:19.509Z,56.59
2023-04-02T10:23:19.586Z,61.57
2023-04-02T10:24:19.598Z,57.02
2023-04-02T10:25:19.659Z,57.33
2023-04-02T10:26:19.700Z,51.68
2023-04-02T10:27:19.760Z,55.58
2023-04-02T10:28:19.816Z,65.34
2023-04-02T10:29:19.858Z,67.73
2023-04-02T10:30:19.912Z,62.43
2023-04-02T10:31:19.994Z,66.92
2023-04-02T10:32:19.988Z,58.85
2023-04-02T10:33:20.066Z,65.12
2023-04-02T10:34:20.083Z,62.05
2023-04-02T10:35:20.143Z,61.42
2023-04-02T10:36:20.190Z,65.15
2023-04-02T10:37:20.221Z,70.55
2023-04-02T10:38:20.268Z,64.34
2023-04-02T10:39:20.332Z,50.59
2023-04-02T10:40:20.356Z,52.95
2023-04-02T10:41:20.402Z,56.81
2023-04-02T10:42:20.462Z,59.48
2023-04-02T10:43:20.538Z,51.93
2023-04-02T10:44:20.976Z,64.06
2023-04-02T10:45:20.589Z,69.88
2023-04-02T10:46:22.331Z,75.34
2023-04-02T10:47:20.619Z,80.76
2023-04-02T10:48:20.637Z,69.19
2023-04-02T10:49:20.680Z,67.74
2023-04-02T10:50:20.637Z,66.95
2023-04-02T10:51:20.608Z,61.45
2023-04-02T10:52:20.618Z,49.39
2023-04-02T10:53:20.592Z,55.88
2023-04-02T10:54:20.601Z,47.49
2023-04-02T10:55:20.584Z,61.28
2023-04-02T10:56:20.582Z,56.54
2023-04-02T10:57:20.634Z,55.20
2023-04-02T10:58:20.555Z,58.67
2023-04-02T10:59:20.555Z,58.82
2023-04-02T11:00:20.576Z,43.31
2023-04-02T11:01:20.596Z,42.66
2023-04-02T11:02:20.551Z,42.20
2023-04-02T11:03:20.587Z,51.40
2023-04-02T11:04:20.537Z,57.56
2023-04-02T11:05:20.519Z,56.33
2023-04-02T11:06:20.512Z,52.07
2023-04-02T11:07:20.527Z,53.47
2023-04-02T11:08:20.524Z,46.46
2023-04-02T11:09:20.482Z,60.03
2023-04-02T11:10:20.516Z,59.82
2023-04-02T11:11:20.470Z,57.92
2023-04-02T11:12:20.483Z,57.53
2023-04-02T11:13:20.462Z,53.84
2023-04-02T11:14:20.461Z,58.62
2023-04-02T11:15:20.478Z,59.57
2023-04-02T11:16:20.502Z,56.49
2023-04-02T11:17:20.522Z,64.30
2023-04-02T11:18:20.436Z,48.51
2023-04-02T11:19:20.427Z,58.40
2023-04-02T11:20:20.453Z,59.75
2023-04-02T11:21:20.421Z,64.76
2023-04-02T11:22:20.430Z,62.98
2023-04-02T11:23:20.411Z,56.79
2023-04-02T11:24:20.400Z,72.01
2023-04-02T11:25:20.392Z,71.39
2023-04-02T11:26:20.392Z,57.75
2023-04-02T11:27:20.386Z,67.99
2023-04-02T11:28:20.372Z,82.38
2023-04-02T11:29:20.423Z,70.25
2023-04-02T11:30:20.493Z,71.67
2023-04-02T11:31:20.605Z,76.93
2023-04-02T11:32:20.624Z,72.28
2023-04-02T11:33:26.517Z,66.29
2023-04-02T11:34:21.671Z,66.48
2023-04-02T11:35:20.675Z,68.56
2023-04-02T11:36:20.673Z,72.73
2023-04-02T11:37:20.647Z,72.58
2023-04-02T11:38:20.662Z,73.39
2023-04-02T11:39:20.639Z,76.10
2023-04-02T11:40:20.627Z,73.89
2023-04-02T11:41:20.636Z,74.05
2023-04-02T11:42:20.671Z,84.68
2023-04-02T11:43:20.732Z,75.57
2023-04-02T11:44:20.764Z,81.65
2023-04-02T11:45:21.153Z,75.25
2023-04-02T11:46:20.885Z,77.77
2023-04-02T11:47:20.948Z,83.71
2023-04-02T11:48:20.929Z,80.36
2023-04-02T11:49:20.961Z,84.02
2023-04-02T11:50:21.001Z,77.78
2023-04-02T11:51:21.334Z,86.44
2023-04-02T11:52:21.094Z,81.45
2023-04-02T11:53:21.100Z,79.25
2023-04-02T11:54:21.191Z,84.14
2023-04-02T11:55:21.153Z,88.34
2023-04-02T11:56:21.166Z,82.90
2023-04-02T11:57:21.697Z,72.48
2023-04-02T11:58:21.262Z,83.67
2023-04-02T11:59:21.307Z,73.62
2023-04-02T12:00:21.286Z,78.93
2023-04-02T12:01:21.298Z,70.45
2023-04-02T12:02:21.403Z,64.99
2023-04-02T12:03:21.492Z,73.70
2023-04-02T12:04:21.386Z,64.63
2023-04-02T12:05:21.498Z,69.25
2023-04-02T12:06:21.436Z,66.01
2023-04-02T12:07:21.478Z,77.93
2023-04-02T12:08:21.470Z,79.22
2023-04-02T12:09:21.484Z,69.54
2023-04-02T12:10:21.495Z,70.92
2023-04-02T12:11:21.505Z,67.87
2023-04-02T12:12:21.518Z,56.82
2023-04-02T12:13:21.512Z,64.43
2023-04-02T12:14:21.527Z,68.58
2023-04-02T12:15:21.546Z,63.60
2023-04-02T12:16:21.586Z,68.58
2023-04-02T12:17:21.736Z,77.08
2023-04-02T12:18:21.592Z,77.98
2023-04-02T12:19:21.609Z,78.51
2023-04-02T12:20:21.632Z,72.11
2023-04-02T12:21:21.635Z,71.02
2023-04-02T12:22:21.614Z,83.84
2023-04-02T12:23:21.624Z,84.10
2023-04-02T12:24:21.630Z,70.46
2023-04-02T12:25:21.632Z,76.76
2023-04-02T12:26:22.994Z,75.91
2023-04-02T12:27:21.593Z,72.39
2023-04-02T12:28:21.604Z,72.68
2023-04-02T12:29:21.612Z,74.55
2023-04-02T12:30:21.576Z,73.08
2023-04-02T12:31:21.601Z,76.96
2023-04-02T12:32:21.598Z,64.66
2023-04-02T12:33:21.589Z,75.02
2023-04-02T12:34:21.588Z,67.24
2023-04-02T12:35:21.587Z,59.29
2023-04-02T12:36:21.618Z,71.28
2023-04-02T12:37:21.562Z,80.12